sensor_id;sensor_type;location;lat;lon;timestamp;P1;durP1;ratioP1;P2;durP2;ratioP2
40164;SDS011;25882;51.120;17.248;2022-11-15T00:00:28;173.40;;;66.20;;
40164;SDS011;25882;51.120;17.248;2022-11-15T00:03:03;167.98;;;59.63;;
40164;SDS011;25882;51.120;17.248;2022-11-15T00:05:29;164.98;;;62.13;;
40164;SDS011;25882;51.120;17.248;2022-11-15T00:08:01;151.27;;;59.88;;
40164;SDS011;25882;51.120;17.248;2022-11-15T00:10:27;173.00;;;65.22;;
40164;SDS011;25882;51.120;17.248;2022-11-15T00:12:53;157.07;;;58.97;;
40164;SDS011;25882;51.120;17.248;2022-11-15T00:15:19;159.13;;;58.42;;
40164;SDS011;25882;51.120;17.248;2022-11-15T00:17:48;160.18;;;61.30;;
40164;SDS011;25882;51.120;17.248;2022-11-15T00:20:14;148.60;;;54.13;;
40164;SDS011;25882;51.120;17.248;2022-11-15T00:22:40;146.82;;;58.03;;
40164;SDS011;25882;51.120;17.248;2022-11-15T00:25:07;145.65;;;57.20;;
40164;SDS011;25882;51.120;17.248;2022-11-15T00:27:34;142.10;;;57.72;;
40164;SDS011;25882;51.120;17.248;2022-11-15T00:30:00;140.40;;;55.85;;
40164;SDS011;25882;51.120;17.248;2022-11-15T00:32:26;135.23;;;53.33;;
40164;SDS011;25882;51.120;17.248;2022-11-15T00:34:56;141.85;;;58.15;;
40164;SDS011;25882;51.120;17.248;2022-11-15T00:37:22;139.50;;;53.17;;
40164;SDS011;25882;51.120;17.248;2022-11-15T00:39:48;139.73;;;51.42;;
40164;SDS011;25882;51.120;17.248;2022-11-15T00:42:15;140.35;;;51.60;;
40164;SDS011;25882;51.120;17.248;2022-11-15T00:44:41;136.73;;;51.25;;
40164;SDS011;25882;51.120;17.248;2022-11-15T00:47:07;129.63;;;51.45;;
40164;SDS011;25882;51.120;17.248;2022-11-15T00:49:33;141.90;;;50.55;;
40164;SDS011;25882;51.120;17.248;2022-11-15T00:51:59;146.98;;;56.58;;
40164;SDS011;25882;51.120;17.248;2022-11-15T00:54:25;180.60;;;71.85;;
40164;SDS011;25882;51.120;17.248;2022-11-15T00:56:51;149.50;;;55.45;;
40164;SDS011;25882;51.120;17.248;2022-11-15T00:59:19;146.93;;;56.40;;
40164;SDS011;25882;51.120;17.248;2022-11-15T01:01:45;140.95;;;52.40;;
40164;SDS011;25882;51.120;17.248;2022-11-15T01:04:11;137.48;;;54.15;;
40164;SDS011;25882;51.120;17.248;2022-11-15T01:06:38;128.43;;;49.95;;
40164;SDS011;25882;51.120;17.248;2022-11-15T01:09:03;130.27;;;49.90;;
40164;SDS011;25882;51.120;17.248;2022-11-15T01:11:29;130.65;;;47.83;;
40164;SDS011;25882;51.120;17.248;2022-11-15T01:13:55;118.38;;;46.10;;
40164;SDS011;25882;51.120;17.248;2022-11-15T01:16:23;121.65;;;46.53;;
40164;SDS011;25882;51.120;17.248;2022-11-15T01:18:49;135.18;;;46.78;;
40164;SDS011;25882;51.120;17.248;2022-11-15T01:21:17;114.72;;;45.63;;
40164;SDS011;25882;51.120;17.248;2022-11-15T01:23:43;127.13;;;49.03;;
40164;SDS011;25882;51.120;17.248;2022-11-15T01:26:10;129.13;;;48.05;;
40164;SDS011;25882;51.120;17.248;2022-11-15T01:28:37;130.65;;;48.63;;
40164;SDS011;25882;51.120;17.248;2022-11-15T01:31:04;130.77;;;48.80;;
40164;SDS011;25882;51.120;17.248;2022-11-15T01:33:33;147.77;;;52.97;;
40164;SDS011;25882;51.120;17.248;2022-11-15T01:36:02;206.85;;;86.13;;
40164;SDS011;25882;51.120;17.248;2022-11-15T01:38:28;177.13;;;72.68;;
40164;SDS011;25882;51.120;17.248;2022-11-15T01:40:54;154.50;;;58.90;;
40164;SDS011;25882;51.120;17.248;2022-11-15T01:43:21;152.02;;;59.05;;
40164;SDS011;25882;51.120;17.248;2022-11-15T01:45:49;124.95;;;48.30;;
40164;SDS011;25882;51.120;17.248;2022-11-15T01:48:16;137.55;;;49.72;;
40164;SDS011;25882;51.120;17.248;2022-11-15T01:50:43;130.20;;;49.13;;
40164;SDS011;25882;51.120;17.248;2022-11-15T01:53:09;137.50;;;48.92;;
40164;SDS011;25882;51.120;17.248;2022-11-15T01:55:36;142.10;;;48.75;;
40164;SDS011;25882;51.120;17.248;2022-11-15T01:58:03;172.23;;;51.90;;
40164;SDS011;25882;51.120;17.248;2022-11-15T02:00:30;143.55;;;50.33;;
40164;SDS011;25882;51.120;17.248;2022-11-15T02:02:56;137.40;;;53.08;;
40164;SDS011;25882;51.120;17.248;2022-11-15T02:05:22;140.32;;;48.97;;
40164;SDS011;25882;51.120;17.248;2022-11-15T02:07:50;136.73;;;52.08;;
40164;SDS011;25882;51.120;17.248;2022-11-15T02:13:05;141.02;;;51.20;;
40164;SDS011;25882;51.120;17.248;2022-11-15T02:15:33;156.45;;;58.13;;
40164;SDS011;25882;51.120;17.248;2022-11-15T02:18:04;154.85;;;59.03;;
40164;SDS011;25882;51.120;17.248;2022-11-15T02:20:47;138.18;;;51.75;;
40164;SDS011;25882;51.120;17.248;2022-11-15T02:26:10;135.35;;;52.15;;
40164;SDS011;25882;51.120;17.248;2022-11-15T02:28:44;139.50;;;49.28;;
40164;SDS011;25882;51.120;17.248;2022-11-15T02:31:14;136.88;;;49.33;;
40164;SDS011;25882;51.120;17.248;2022-11-15T02:33:45;140.13;;;48.88;;
40164;SDS011;25882;51.120;17.248;2022-11-15T02:36:18;128.18;;;45.90;;
40164;SDS011;25882;51.120;17.248;2022-11-15T02:38:47;120.68;;;45.17;;
40164;SDS011;25882;51.120;17.248;2022-11-15T02:41:20;120.03;;;45.92;;
40164;SDS011;25882;51.120;17.248;2022-11-15T02:43:47;126.07;;;46.58;;
40164;SDS011;25882;51.120;17.248;2022-11-15T02:46:26;120.30;;;47.00;;
40164;SDS011;25882;51.120;17.248;2022-11-15T02:49:13;128.13;;;45.97;;
40164;SDS011;25882;51.120;17.248;2022-11-15T02:51:40;124.28;;;45.65;;
40164;SDS011;25882;51.120;17.248;2022-11-15T02:54:07;134.25;;;49.15;;
40164;SDS011;25882;51.120;17.248;2022-11-15T02:56:36;114.78;;;45.05;;
40164;SDS011;25882;51.120;17.248;2022-11-15T02:59:09;137.00;;;47.97;;
40164;SDS011;25882;51.120;17.248;2022-11-15T03:01:43;132.82;;;48.35;;
40164;SDS011;25882;51.120;17.248;2022-11-15T03:04:17;149.25;;;49.75;;
40164;SDS011;25882;51.120;17.248;2022-11-15T03:06:46;137.20;;;49.10;;
40164;SDS011;25882;51.120;17.248;2022-11-15T03:09:17;121.25;;;45.33;;
40164;SDS011;25882;51.120;17.248;2022-11-15T03:11:48;120.25;;;46.15;;
40164;SDS011;25882;51.120;17.248;2022-11-15T03:14:18;123.03;;;46.38;;
40164;SDS011;25882;51.120;17.248;2022-11-15T03:16:49;126.93;;;46.30;;
40164;SDS011;25882;51.120;17.248;2022-11-15T03:19:17;125.30;;;47.95;;
40164;SDS011;25882;51.120;17.248;2022-11-15T03:21:45;119.05;;;45.33;;
40164;SDS011;25882;51.120;17.248;2022-11-15T03:24:12;128.57;;;48.13;;
40164;SDS011;25882;51.120;17.248;2022-11-15T03:26:39;125.93;;;47.38;;
40164;SDS011;25882;51.120;17.248;2022-11-15T03:29:07;129.32;;;48.08;;
40164;SDS011;25882;51.120;17.248;2022-11-15T03:31:36;122.75;;;47.53;;
40164;SDS011;25882;51.120;17.248;2022-11-15T03:34:15;126.88;;;48.67;;
40164;SDS011;25882;51.120;17.248;2022-11-15T03:36:43;143.13;;;50.53;;
40164;SDS011;25882;51.120;17.248;2022-11-15T03:39:09;129.23;;;48.65;;
40164;SDS011;25882;51.120;17.248;2022-11-15T03:41:35;132.48;;;49.33;;
40164;SDS011;25882;51.120;17.248;2022-11-15T03:44:04;132.20;;;49.15;;
40164;SDS011;25882;51.120;17.248;2022-11-15T03:46:32;129.73;;;48.65;;
40164;SDS011;25882;51.120;17.248;2022-11-15T03:48:59;127.90;;;46.45;;
40164;SDS011;25882;51.120;17.248;2022-11-15T03:51:30;122.00;;;45.13;;
40164;SDS011;25882;51.120;17.248;2022-11-15T03:53:56;138.68;;;49.03;;
40164;SDS011;25882;51.120;17.248;2022-11-15T03:56:22;129.02;;;47.22;;
40164;SDS011;25882;51.120;17.248;2022-11-15T03:58:48;129.70;;;48.67;;
40164;SDS011;25882;51.120;17.248;2022-11-15T04:01:14;134.05;;;48.50;;
40164;SDS011;25882;51.120;17.248;2022-11-15T04:03:40;134.82;;;47.20;;
40164;SDS011;25882;51.120;17.248;2022-11-15T04:06:06;123.68;;;45.10;;
40164;SDS011;25882;51.120;17.248;2022-11-15T04:08:34;127.40;;;44.63;;
40164;SDS011;25882;51.120;17.248;2022-11-15T04:11:00;119.68;;;42.50;;
40164;SDS011;25882;51.120;17.248;2022-11-15T04:13:26;124.03;;;43.58;;
40164;SDS011;25882;51.120;17.248;2022-11-15T04:15:51;138.32;;;46.30;;
40164;SDS011;25882;51.120;17.248;2022-11-15T04:18:18;135.60;;;47.20;;
40164;SDS011;25882;51.120;17.248;2022-11-15T04:20:43;128.85;;;43.92;;
40164;SDS011;25882;51.120;17.248;2022-11-15T04:23:28;125.50;;;47.20;;
40164;SDS011;25882;51.120;17.248;2022-11-15T04:26:14;145.10;;;49.45;;
40164;SDS011;25882;51.120;17.248;2022-11-15T04:28:41;151.18;;;50.22;;
40164;SDS011;25882;51.120;17.248;2022-11-15T04:31:26;128.70;;;47.20;;
40164;SDS011;25882;51.120;17.248;2022-11-15T04:33:52;133.27;;;46.97;;
40164;SDS011;25882;51.120;17.248;2022-11-15T04:36:18;128.10;;;45.42;;
40164;SDS011;25882;51.120;17.248;2022-11-15T04:39:03;123.63;;;44.22;;
40164;SDS011;25882;51.120;17.248;2022-11-15T04:41:30;125.90;;;44.45;;
40164;SDS011;25882;51.120;17.248;2022-11-15T04:43:57;134.90;;;46.67;;
40164;SDS011;25882;51.120;17.248;2022-11-15T04:46:23;140.55;;;47.72;;
40164;SDS011;25882;51.120;17.248;2022-11-15T04:48:49;130.48;;;45.53;;
40164;SDS011;25882;51.120;17.248;2022-11-15T04:51:15;127.72;;;46.38;;
40164;SDS011;25882;51.120;17.248;2022-11-15T04:53:42;127.15;;;45.20;;
40164;SDS011;25882;51.120;17.248;2022-11-15T04:56:07;133.88;;;47.75;;
40164;SDS011;25882;51.120;17.248;2022-11-15T04:58:35;142.85;;;48.67;;
40164;SDS011;25882;51.120;17.248;2022-11-15T05:01:06;136.43;;;50.22;;
40164;SDS011;25882;51.120;17.248;2022-11-15T05:03:32;153.70;;;51.60;;
40164;SDS011;25882;51.120;17.248;2022-11-15T05:06:17;135.30;;;47.17;;
40164;SDS011;25882;51.120;17.248;2022-11-15T05:08:43;139.30;;;47.05;;
40164;SDS011;25882;51.120;17.248;2022-11-15T05:11:09;156.65;;;51.25;;
40164;SDS011;25882;51.120;17.248;2022-11-15T05:13:37;161.05;;;54.97;;
40164;SDS011;25882;51.120;17.248;2022-11-15T05:16:03;176.43;;;62.30;;
40164;SDS011;25882;51.120;17.248;2022-11-15T05:18:29;155.10;;;53.92;;
40164;SDS011;25882;51.120;17.248;2022-11-15T05:20:55;147.98;;;51.83;;
40164;SDS011;25882;51.120;17.248;2022-11-15T05:23:21;147.02;;;50.70;;
40164;SDS011;25882;51.120;17.248;2022-11-15T05:25:47;168.88;;;59.33;;
40164;SDS011;25882;51.120;17.248;2022-11-15T05:28:13;158.15;;;52.22;;
40164;SDS011;25882;51.120;17.248;2022-11-15T05:30:41;155.57;;;56.97;;
40164;SDS011;25882;51.120;17.248;2022-11-15T05:33:07;163.60;;;64.75;;
40164;SDS011;25882;51.120;17.248;2022-11-15T05:35:34;165.77;;;60.42;;
40164;SDS011;25882;51.120;17.248;2022-11-15T05:38:01;148.73;;;54.47;;
40164;SDS011;25882;51.120;17.248;2022-11-15T05:40:27;136.90;;;47.25;;
40164;SDS011;25882;51.120;17.248;2022-11-15T05:42:55;140.82;;;48.22;;
40164;SDS011;25882;51.120;17.248;2022-11-15T05:45:21;122.75;;;43.53;;
40164;SDS011;25882;51.120;17.248;2022-11-15T05:47:48;132.13;;;45.22;;
40164;SDS011;25882;51.120;17.248;2022-11-15T05:50:15;126.22;;;44.38;;
40164;SDS011;25882;51.120;17.248;2022-11-15T05:52:41;119.70;;;41.58;;
40164;SDS011;25882;51.120;17.248;2022-11-15T05:55:08;126.25;;;45.15;;
40164;SDS011;25882;51.120;17.248;2022-11-15T05:57:34;122.75;;;45.50;;
40164;SDS011;25882;51.120;17.248;2022-11-15T06:00:00;119.35;;;43.20;;
40164;SDS011;25882;51.120;17.248;2022-11-15T06:02:27;120.63;;;45.00;;
40164;SDS011;25882;51.120;17.248;2022-11-15T06:04:54;138.55;;;43.40;;
40164;SDS011;25882;51.120;17.248;2022-11-15T06:07:20;130.10;;;44.40;;
40164;SDS011;25882;51.120;17.248;2022-11-15T06:09:46;130.55;;;46.30;;
40164;SDS011;25882;51.120;17.248;2022-11-15T06:12:12;127.47;;;45.00;;
40164;SDS011;25882;51.120;17.248;2022-11-15T06:14:38;124.63;;;44.20;;
40164;SDS011;25882;51.120;17.248;2022-11-15T06:17:05;127.60;;;42.10;;
40164;SDS011;25882;51.120;17.248;2022-11-15T06:19:30;164.60;;;54.53;;
40164;SDS011;25882;51.120;17.248;2022-11-15T06:22:00;169.38;;;58.90;;
40164;SDS011;25882;51.120;17.248;2022-11-15T06:24:26;133.00;;;49.72;;
40164;SDS011;25882;51.120;17.248;2022-11-15T06:26:52;108.05;;;43.33;;
40164;SDS011;25882;51.120;17.248;2022-11-15T06:29:17;95.30;;;39.78;;
40164;SDS011;25882;51.120;17.248;2022-11-15T06:31:44;151.55;;;55.25;;
40164;SDS011;25882;51.120;17.248;2022-11-15T06:34:10;146.90;;;50.17;;
40164;SDS011;25882;51.120;17.248;2022-11-15T06:36:36;203.23;;;56.05;;
40164;SDS011;25882;51.120;17.248;2022-11-15T06:39:04;187.77;;;54.35;;
40164;SDS011;25882;51.120;17.248;2022-11-15T06:41:33;149.70;;;47.60;;
40164;SDS011;25882;51.120;17.248;2022-11-15T06:43:58;147.15;;;50.33;;
40164;SDS011;25882;51.120;17.248;2022-11-15T06:46:25;139.80;;;48.80;;
40164;SDS011;25882;51.120;17.248;2022-11-15T06:48:50;130.43;;;47.78;;
40164;SDS011;25882;51.120;17.248;2022-11-15T06:51:17;143.88;;;46.55;;
40164;SDS011;25882;51.120;17.248;2022-11-15T06:53:43;107.40;;;43.78;;
40164;SDS011;25882;51.120;17.248;2022-11-15T06:56:11;118.70;;;43.55;;
40164;SDS011;25882;51.120;17.248;2022-11-15T06:58:37;101.57;;;41.42;;
40164;SDS011;25882;51.120;17.248;2022-11-15T07:01:04;106.68;;;41.15;;
40164;SDS011;25882;51.120;17.248;2022-11-15T07:03:30;106.90;;;41.72;;
40164;SDS011;25882;51.120;17.248;2022-11-15T07:05:56;119.55;;;43.47;;
40164;SDS011;25882;51.120;17.248;2022-11-15T07:08:23;105.72;;;40.70;;
40164;SDS011;25882;51.120;17.248;2022-11-15T07:10:49;90.22;;;38.33;;
40164;SDS011;25882;51.120;17.248;2022-11-15T07:13:17;109.80;;;50.22;;
40164;SDS011;25882;51.120;17.248;2022-11-15T07:15:43;77.13;;;37.40;;
40164;SDS011;25882;51.120;17.248;2022-11-15T07:18:09;84.10;;;39.08;;
40164;SDS011;25882;51.120;17.248;2022-11-15T07:20:35;82.53;;;42.47;;
40164;SDS011;25882;51.120;17.248;2022-11-15T07:23:01;78.22;;;35.72;;
40164;SDS011;25882;51.120;17.248;2022-11-15T07:25:27;68.88;;;33.67;;
40164;SDS011;25882;51.120;17.248;2022-11-15T07:27:54;60.67;;;33.00;;
40164;SDS011;25882;51.120;17.248;2022-11-15T07:30:21;61.53;;;30.50;;
40164;SDS011;25882;51.120;17.248;2022-11-15T07:32:51;65.03;;;34.63;;
40164;SDS011;25882;51.120;17.248;2022-11-15T07:35:17;50.83;;;28.92;;
40164;SDS011;25882;51.120;17.248;2022-11-15T07:37:43;66.78;;;33.35;;
40164;SDS011;25882;51.120;17.248;2022-11-15T07:40:10;53.55;;;30.50;;
40164;SDS011;25882;51.120;17.248;2022-11-15T07:42:35;58.05;;;29.85;;
40164;SDS011;25882;51.120;17.248;2022-11-15T07:45:23;52.35;;;27.95;;
40164;SDS011;25882;51.120;17.248;2022-11-15T07:47:52;47.60;;;27.27;;
40164;SDS011;25882;51.120;17.248;2022-11-15T07:50:19;48.22;;;25.50;;
40164;SDS011;25882;51.120;17.248;2022-11-15T07:52:45;48.95;;;25.10;;
40164;SDS011;25882;51.120;17.248;2022-11-15T07:55:11;42.38;;;25.05;;
40164;SDS011;25882;51.120;17.248;2022-11-15T07:57:37;43.72;;;25.63;;
40164;SDS011;25882;51.120;17.248;2022-11-15T08:00:04;45.65;;;24.52;;
40164;SDS011;25882;51.120;17.248;2022-11-15T08:02:31;45.58;;;24.52;;
40164;SDS011;25882;51.120;17.248;2022-11-15T08:04:58;43.05;;;25.42;;
40164;SDS011;25882;51.120;17.248;2022-11-15T08:07:24;45.88;;;25.92;;
40164;SDS011;25882;51.120;17.248;2022-11-15T08:09:50;44.05;;;25.67;;
40164;SDS011;25882;51.120;17.248;2022-11-15T08:12:16;41.00;;;25.20;;
40164;SDS011;25882;51.120;17.248;2022-11-15T08:14:42;45.65;;;26.83;;
40164;SDS011;25882;51.120;17.248;2022-11-15T08:17:08;42.13;;;25.23;;
40164;SDS011;25882;51.120;17.248;2022-11-15T08:19:36;43.33;;;24.75;;
40164;SDS011;25882;51.120;17.248;2022-11-15T08:22:02;40.63;;;22.95;;
40164;SDS011;25882;51.120;17.248;2022-11-15T08:24:29;39.25;;;24.95;;
40164;SDS011;25882;51.120;17.248;2022-11-15T08:26:54;44.60;;;25.38;;
40164;SDS011;25882;51.120;17.248;2022-11-15T08:29:21;42.97;;;26.55;;
40164;SDS011;25882;51.120;17.248;2022-11-15T08:31:47;42.72;;;26.77;;
40164;SDS011;25882;51.120;17.248;2022-11-15T08:34:13;41.72;;;25.02;;
40164;SDS011;25882;51.120;17.248;2022-11-15T08:36:40;40.42;;;26.00;;
40164;SDS011;25882;51.120;17.248;2022-11-15T08:39:08;38.72;;;25.20;;
40164;SDS011;25882;51.120;17.248;2022-11-15T08:41:35;40.38;;;24.60;;
40164;SDS011;25882;51.120;17.248;2022-11-15T08:44:02;38.90;;;24.95;;
40164;SDS011;25882;51.120;17.248;2022-11-15T08:46:28;39.42;;;23.63;;
40164;SDS011;25882;51.120;17.248;2022-11-15T08:48:54;38.38;;;24.95;;
40164;SDS011;25882;51.120;17.248;2022-11-15T08:51:20;32.65;;;21.45;;
40164;SDS011;25882;51.120;17.248;2022-11-15T08:53:48;41.35;;;26.02;;
40164;SDS011;25882;51.120;17.248;2022-11-15T08:56:14;41.03;;;24.50;;
40164;SDS011;25882;51.120;17.248;2022-11-15T08:58:40;37.80;;;23.63;;
40164;SDS011;25882;51.120;17.248;2022-11-15T09:01:13;36.33;;;23.30;;
40164;SDS011;25882;51.120;17.248;2022-11-15T09:03:40;33.97;;;23.05;;
40164;SDS011;25882;51.120;17.248;2022-11-15T09:06:06;35.28;;;23.60;;
40164;SDS011;25882;51.120;17.248;2022-11-15T09:08:32;34.50;;;23.05;;
40164;SDS011;25882;51.120;17.248;2022-11-15T09:11:02;41.20;;;23.45;;
40164;SDS011;25882;51.120;17.248;2022-11-15T09:13:28;34.67;;;23.33;;
40164;SDS011;25882;51.120;17.248;2022-11-15T09:15:56;35.70;;;21.67;;
40164;SDS011;25882;51.120;17.248;2022-11-15T09:18:23;36.45;;;22.40;;
40164;SDS011;25882;51.120;17.248;2022-11-15T09:20:49;33.53;;;21.80;;
40164;SDS011;25882;51.120;17.248;2022-11-15T09:23:15;33.55;;;22.15;;
40164;SDS011;25882;51.120;17.248;2022-11-15T09:25:41;34.20;;;21.80;;
40164;SDS011;25882;51.120;17.248;2022-11-15T09:28:09;37.92;;;22.70;;
40164;SDS011;25882;51.120;17.248;2022-11-15T09:30:34;33.80;;;22.20;;
40164;SDS011;25882;51.120;17.248;2022-11-15T09:33:05;35.00;;;22.85;;
40164;SDS011;25882;51.120;17.248;2022-11-15T09:35:31;35.10;;;22.13;;
40164;SDS011;25882;51.120;17.248;2022-11-15T09:37:58;34.83;;;23.08;;
40164;SDS011;25882;51.120;17.248;2022-11-15T09:40:23;41.20;;;24.70;;
40164;SDS011;25882;51.120;17.248;2022-11-15T09:43:00;44.58;;;28.10;;
40164;SDS011;25882;51.120;17.248;2022-11-15T09:45:31;41.83;;;27.95;;
40164;SDS011;25882;51.120;17.248;2022-11-15T09:48:19;40.97;;;26.48;;
40164;SDS011;25882;51.120;17.248;2022-11-15T09:50:50;39.50;;;24.63;;
40164;SDS011;25882;51.120;17.248;2022-11-15T09:53:24;49.13;;;27.20;;
40164;SDS011;25882;51.120;17.248;2022-11-15T09:55:52;41.15;;;25.75;;
40164;SDS011;25882;51.120;17.248;2022-11-15T09:58:22;38.10;;;25.63;;
40164;SDS011;25882;51.120;17.248;2022-11-15T10:00:52;42.60;;;27.05;;
40164;SDS011;25882;51.120;17.248;2022-11-15T10:03:22;43.92;;;26.80;;
40164;SDS011;25882;51.120;17.248;2022-11-15T10:05:49;32.63;;;21.58;;
40164;SDS011;25882;51.120;17.248;2022-11-15T10:08:20;35.55;;;20.95;;
40164;SDS011;25882;51.120;17.248;2022-11-15T10:10:48;31.08;;;19.88;;
40164;SDS011;25882;51.120;17.248;2022-11-15T10:13:16;31.48;;;22.00;;
40164;SDS011;25882;51.120;17.248;2022-11-15T10:15:44;33.22;;;20.30;;
40164;SDS011;25882;51.120;17.248;2022-11-15T10:18:16;34.55;;;19.83;;
40164;SDS011;25882;51.120;17.248;2022-11-15T10:20:47;29.65;;;19.88;;
40164;SDS011;25882;51.120;17.248;2022-11-15T10:23:14;27.35;;;18.35;;
40164;SDS011;25882;51.120;17.248;2022-11-15T10:25:41;27.20;;;16.48;;
40164;SDS011;25882;51.120;17.248;2022-11-15T10:28:09;29.40;;;17.73;;
40164;SDS011;25882;51.120;17.248;2022-11-15T10:30:37;29.70;;;19.05;;
40164;SDS011;25882;51.120;17.248;2022-11-15T10:33:11;29.25;;;18.10;;
40164;SDS011;25882;51.120;17.248;2022-11-15T10:35:39;31.55;;;19.05;;
40164;SDS011;25882;51.120;17.248;2022-11-15T10:38:05;32.88;;;20.42;;
40164;SDS011;25882;51.120;17.248;2022-11-15T10:40:31;29.73;;;19.08;;
40164;SDS011;25882;51.120;17.248;2022-11-15T10:43:04;29.55;;;18.70;;
40164;SDS011;25882;51.120;17.248;2022-11-15T10:45:30;31.65;;;19.25;;
40164;SDS011;25882;51.120;17.248;2022-11-15T10:48:19;32.67;;;20.48;;
40164;SDS011;25882;51.120;17.248;2022-11-15T10:50:47;27.80;;;17.58;;
40164;SDS011;25882;51.120;17.248;2022-11-15T10:53:15;29.27;;;18.05;;
40164;SDS011;25882;51.120;17.248;2022-11-15T10:55:42;37.05;;;18.45;;
40164;SDS011;25882;51.120;17.248;2022-11-15T10:58:19;27.58;;;17.73;;
40164;SDS011;25882;51.120;17.248;2022-11-15T11:00:46;29.40;;;17.85;;
40164;SDS011;25882;51.120;17.248;2022-11-15T11:03:22;31.83;;;18.83;;
40164;SDS011;25882;51.120;17.248;2022-11-15T11:06:02;26.52;;;16.80;;
40164;SDS011;25882;51.120;17.248;2022-11-15T11:08:28;27.27;;;17.15;;
40164;SDS011;25882;51.120;17.248;2022-11-15T11:10:55;28.70;;;18.30;;
40164;SDS011;25882;51.120;17.248;2022-11-15T11:13:22;32.92;;;19.88;;
40164;SDS011;25882;51.120;17.248;2022-11-15T11:15:50;31.08;;;19.10;;
40164;SDS011;25882;51.120;17.248;2022-11-15T11:18:19;29.15;;;18.70;;
40164;SDS011;25882;51.120;17.248;2022-11-15T11:20:49;28.10;;;16.58;;
40164;SDS011;25882;51.120;17.248;2022-11-15T11:23:26;25.58;;;15.98;;
40164;SDS011;25882;51.120;17.248;2022-11-15T11:25:56;31.85;;;17.70;;
40164;SDS011;25882;51.120;17.248;2022-11-15T11:28:33;27.40;;;16.30;;
40164;SDS011;25882;51.120;17.248;2022-11-15T11:31:04;26.13;;;16.20;;
40164;SDS011;25882;51.120;17.248;2022-11-15T11:33:34;24.20;;;15.88;;
40164;SDS011;25882;51.120;17.248;2022-11-15T11:36:05;26.27;;;15.55;;
40164;SDS011;25882;51.120;17.248;2022-11-15T11:38:40;26.17;;;16.95;;
40164;SDS011;25882;51.120;17.248;2022-11-15T11:41:10;28.63;;;16.00;;
40164;SDS011;25882;51.120;17.248;2022-11-15T11:43:40;25.88;;;15.55;;
40164;SDS011;25882;51.120;17.248;2022-11-15T11:46:13;27.95;;;16.88;;
40164;SDS011;25882;51.120;17.248;2022-11-15T11:48:44;24.20;;;16.27;;
40164;SDS011;25882;51.120;17.248;2022-11-15T11:51:12;27.15;;;16.33;;
40164;SDS011;25882;51.120;17.248;2022-11-15T11:53:41;26.58;;;16.05;;
40164;SDS011;25882;51.120;17.248;2022-11-15T11:56:10;28.25;;;16.13;;
40164;SDS011;25882;51.120;17.248;2022-11-15T12:01:07;26.02;;;15.32;;
40164;SDS011;25882;51.120;17.248;2022-11-15T12:03:38;26.05;;;15.73;;
40164;SDS011;25882;51.120;17.248;2022-11-15T12:06:06;25.57;;;15.73;;
40164;SDS011;25882;51.120;17.248;2022-11-15T12:08:36;24.85;;;14.40;;
40164;SDS011;25882;51.120;17.248;2022-11-15T12:11:08;21.83;;;13.77;;
40164;SDS011;25882;51.120;17.248;2022-11-15T12:13:35;24.13;;;13.60;;
40164;SDS011;25882;51.120;17.248;2022-11-15T12:16:03;20.27;;;12.95;;
40164;SDS011;25882;51.120;17.248;2022-11-15T12:18:31;19.52;;;12.20;;
40164;SDS011;25882;51.120;17.248;2022-11-15T12:20:59;17.35;;;10.82;;
40164;SDS011;25882;51.120;17.248;2022-11-15T12:23:27;19.35;;;11.90;;
40164;SDS011;25882;51.120;17.248;2022-11-15T12:25:54;21.35;;;12.50;;
40164;SDS011;25882;51.120;17.248;2022-11-15T12:28:25;20.40;;;12.90;;
40164;SDS011;25882;51.120;17.248;2022-11-15T12:30:54;18.80;;;11.88;;
40164;SDS011;25882;51.120;17.248;2022-11-15T12:33:32;16.90;;;11.48;;
40164;SDS011;25882;51.120;17.248;2022-11-15T12:35:58;18.20;;;11.43;;
40164;SDS011;25882;51.120;17.248;2022-11-15T12:41:13;18.88;;;11.55;;
40164;SDS011;25882;51.120;17.248;2022-11-15T12:43:42;17.10;;;10.07;;
40164;SDS011;25882;51.120;17.248;2022-11-15T12:46:11;18.13;;;10.98;;
40164;SDS011;25882;51.120;17.248;2022-11-15T12:48:48;18.38;;;11.23;;
40164;SDS011;25882;51.120;17.248;2022-11-15T12:51:14;17.63;;;11.77;;
40164;SDS011;25882;51.120;17.248;2022-11-15T12:53:41;18.92;;;11.15;;
40164;SDS011;25882;51.120;17.248;2022-11-15T12:56:17;19.10;;;11.73;;
40164;SDS011;25882;51.120;17.248;2022-11-15T12:58:47;18.85;;;11.25;;
40164;SDS011;25882;51.120;17.248;2022-11-15T13:06:40;20.17;;;11.82;;
40164;SDS011;25882;51.120;17.248;2022-11-15T13:11:51;21.08;;;13.43;;
40164;SDS011;25882;51.120;17.248;2022-11-15T13:17:03;20.02;;;11.77;;
40164;SDS011;25882;51.120;17.248;2022-11-15T13:19:38;19.08;;;11.07;;
40164;SDS011;25882;51.120;17.248;2022-11-15T13:22:04;18.42;;;11.65;;
40164;SDS011;25882;51.120;17.248;2022-11-15T13:24:49;16.98;;;10.73;;
40164;SDS011;25882;51.120;17.248;2022-11-15T13:27:15;17.55;;;10.77;;
40164;SDS011;25882;51.120;17.248;2022-11-15T13:29:43;19.95;;;11.82;;
40164;SDS011;25882;51.120;17.248;2022-11-15T13:32:11;17.95;;;11.02;;
40164;SDS011;25882;51.120;17.248;2022-11-15T13:34:39;18.17;;;11.93;;
40164;SDS011;25882;51.120;17.248;2022-11-15T13:37:09;18.80;;;10.55;;
40164;SDS011;25882;51.120;17.248;2022-11-15T13:39:38;20.27;;;11.32;;
40164;SDS011;25882;51.120;17.248;2022-11-15T13:42:04;16.77;;;10.57;;
40164;SDS011;25882;51.120;17.248;2022-11-15T13:44:31;16.42;;;10.48;;
40164;SDS011;25882;51.120;17.248;2022-11-15T13:47:01;18.13;;;12.05;;
40164;SDS011;25882;51.120;17.248;2022-11-15T13:51:55;20.23;;;12.13;;
40164;SDS011;25882;51.120;17.248;2022-11-15T13:54:23;18.73;;;11.43;;
40164;SDS011;25882;51.120;17.248;2022-11-15T13:56:51;19.20;;;12.68;;
40164;SDS011;25882;51.120;17.248;2022-11-15T13:59:20;17.48;;;11.25;;
40164;SDS011;25882;51.120;17.248;2022-11-15T14:01:49;18.65;;;12.13;;
40164;SDS011;25882;51.120;17.248;2022-11-15T14:04:17;18.60;;;12.00;;
40164;SDS011;25882;51.120;17.248;2022-11-15T14:06:44;18.60;;;12.55;;
40164;SDS011;25882;51.120;17.248;2022-11-15T14:09:29;20.23;;;11.73;;
40164;SDS011;25882;51.120;17.248;2022-11-15T14:11:56;19.95;;;11.55;;
40164;SDS011;25882;51.120;17.248;2022-11-15T14:14:23;17.40;;;11.55;;
40164;SDS011;25882;51.120;17.248;2022-11-15T14:16:50;18.88;;;12.07;;
40164;SDS011;25882;51.120;17.248;2022-11-15T14:24:23;15.18;;;10.45;;
40164;SDS011;25882;51.120;17.248;2022-11-15T14:26:56;22.17;;;12.80;;
40164;SDS011;25882;51.120;17.248;2022-11-15T14:29:23;20.83;;;11.38;;
40164;SDS011;25882;51.120;17.248;2022-11-15T14:31:49;17.73;;;12.48;;
40164;SDS011;25882;51.120;17.248;2022-11-15T14:34:17;20.42;;;11.95;;
40164;SDS011;25882;51.120;17.248;2022-11-15T14:36:43;20.95;;;13.50;;
40164;SDS011;25882;51.120;17.248;2022-11-15T14:39:10;27.10;;;13.45;;